sensor_id;sensor_type;location;lat;lon;timestamp;pressure;altitude;pressure_sealevel;temperature;humidity
7966;BME280;4028;43.272;26.932;2022-11-15T00:01:37;99951.31;;;8.29;100.00
7966;BME280;4028;43.272;26.932;2022-11-15T00:04:04;99961.13;;;8.27;100.00
7966;BME280;4028;43.272;26.932;2022-11-15T00:06:30;99959.91;;;8.20;100.00
7966;BME280;4028;43.272;26.932;2022-11-15T00:08:57;99953.03;;;8.17;100.00
7966;BME280;4028;43.272;26.932;2022-11-15T00:11:23;99951.34;;;8.16;100.00
7966;BME280;4028;43.272;26.932;2022-11-15T00:13:49;99944.06;;;8.20;100.00
7966;BME280;4028;43.272;26.932;2022-11-15T00:16:14;99945.00;;;8.19;100.00
7966;BME280;4028;43.272;26.932;2022-11-15T00:18:40;99942.16;;;8.22;100.00
7966;BME280;4028;43.272;26.932;2022-11-15T00:21:08;99949.53;;;8.29;100.00
7966;BME280;4028;43.272;26.932;2022-11-15T00:23:34;99919.41;;;8.08;100.00
7966;BME280;4028;43.272;26.932;2022-11-15T00:26:00;99941.44;;;8.20;100.00
7966;BME280;4028;43.272;26.932;2022-11-15T00:28:26;99939.63;;;8.20;100.00
7966;BME280;4028;43.272;26.932;2022-11-15T00:30:52;99937.97;;;8.06;100.00
7966;BME280;4028;43.272;26.932;2022-11-15T00:33:17;99935.13;;;7.97;100.00
7966;BME280;4028;43.272;26.932;2022-11-15T00:35:43;99935.22;;;8.08;100.00
7966;BME280;4028;43.272;26.932;2022-11-15T00:38:08;99943.75;;;8.12;100.00
7966;BME280;4028;43.272;26.932;2022-11-15T00:40:34;99938.16;;;8.16;100.00
7966;BME280;4028;43.272;26.932;2022-11-15T00:42:59;99933.28;;;8.23;100.00
7966;BME280;4028;43.272;26.932;2022-11-15T00:45:25;99931.28;;;8.26;100.00
7966;BME280;4028;43.272;26.932;2022-11-15T00:47:51;99927.50;;;8.18;100.00
7966;BME280;4028;43.272;26.932;2022-11-15T00:50:17;99931.94;;;8.17;100.00
7966;BME280;4028;43.272;26.932;2022-11-15T00:52:43;99931.31;;;8.14;100.00
7966;BME280;4028;43.272;26.932;2022-11-15T00:55:19;99917.59;;;8.08;100.00
7966;BME280;4028;43.272;26.932;2022-11-15T00:57:45;99939.44;;;8.11;100.00
7966;BME280;4028;43.272;26.932;2022-11-15T01:00:12;99917.38;;;8.24;100.00
7966;BME280;4028;43.272;26.932;2022-11-15T01:02:37;99918.81;;;8.28;100.00
7966;BME280;4028;43.272;26.932;2022-11-15T01:05:03;99911.88;;;8.27;100.00
7966;BME280;4028;43.272;26.932;2022-11-15T01:07:28;99916.31;;;8.27;100.00
7966;BME280;4028;43.272;26.932;2022-11-15T01:09:54;99910.41;;;8.23;100.00
7966;BME280;4028;43.272;26.932;2022-11-15T01:12:19;99917.28;;;8.13;100.00
7966;BME280;4028;43.272;26.932;2022-11-15T01:14:45;99914.44;;;8.03;100.00
7966;BME280;4028;43.272;26.932;2022-11-15T01:17:10;99914.91;;;7.97;100.00
7966;BME280;4028;43.272;26.932;2022-11-15T01:19:35;99914.06;;;7.97;100.00
7966;BME280;4028;43.272;26.932;2022-11-15T01:22:01;99918.81;;;8.04;100.00
7966;BME280;4028;43.272;26.932;2022-11-15T01:24:26;99911.72;;;8.05;100.00
7966;BME280;4028;43.272;26.932;2022-11-15T01:26:52;99916.88;;;8.06;100.00
7966;BME280;4028;43.272;26.932;2022-11-15T01:29:17;99911.72;;;8.05;100.00
7966;BME280;4028;43.272;26.932;2022-11-15T01:31:43;99912.44;;;8.07;100.00
7966;BME280;4028;43.272;26.932;2022-11-15T01:34:08;99908.34;;;8.03;100.00
7966;BME280;4028;43.272;26.932;2022-11-15T01:36:34;99900.38;;;7.92;100.00
7966;BME280;4028;43.272;26.932;2022-11-15T01:38:59;99915.59;;;8.12;100.00
7966;BME280;4028;43.272;26.932;2022-11-15T01:41:31;99913.94;;;8.11;100.00
7966;BME280;4028;43.272;26.932;2022-11-15T01:47:03;99900.56;;;8.01;100.00
7966;BME280;4028;43.272;26.932;2022-11-15T01:49:32;99895.72;;;7.95;100.00
7966;BME280;4028;43.272;26.932;2022-11-15T01:52:00;99894.25;;;7.91;100.00
7966;BME280;4028;43.272;26.932;2022-11-15T01:54:27;99902.34;;;8.01;100.00
7966;BME280;4028;43.272;26.932;2022-11-15T01:56:59;99897.53;;;7.95;100.00
7966;BME280;4028;43.272;26.932;2022-11-15T01:59:26;99896.06;;;7.91;100.00
7966;BME280;4028;43.272;26.932;2022-11-15T02:01:52;99899.66;;;7.90;100.00
7966;BME280;4028;43.272;26.932;2022-11-15T02:04:29;99905.19;;;7.98;100.00
7966;BME280;4028;43.272;26.932;2022-11-15T02:06:56;99894.44;;;8.01;100.00
7966;BME280;4028;43.272;26.932;2022-11-15T02:09:22;99898.75;;;8.02;100.00
7966;BME280;4028;43.272;26.932;2022-11-15T02:11:48;99885.06;;;7.97;100.00
7966;BME280;4028;43.272;26.932;2022-11-15T02:14:16;99887.94;;;7.94;100.00
7966;BME280;4028;43.272;26.932;2022-11-15T02:33:03;99873.56;;;7.98;100.00
7966;BME280;4028;43.272;26.932;2022-11-15T02:35:49;99877.94;;;7.86;100.00
7966;BME280;4028;43.272;26.932;2022-11-15T02:38:32;99873.28;;;7.90;100.00
7966;BME280;4028;43.272;26.932;2022-11-15T02:41:06;99873.91;;;7.93;100.00
7966;BME280;4028;43.272;26.932;2022-11-15T02:43:55;99872.97;;;7.94;100.00
7966;BME280;4028;43.272;26.932;2022-11-15T02:46:38;99874.84;;;8.05;100.00
7966;BME280;4028;43.272;26.932;2022-11-15T02:49:26;99874.38;;;8.11;100.00
7966;BME280;4028;43.272;26.932;2022-11-15T02:51:54;99870.06;;;8.10;100.00
7966;BME280;4028;43.272;26.932;2022-11-15T02:54:23;99869.38;;;7.95;100.00
7966;BME280;4028;43.272;26.932;2022-11-15T02:56:50;99867.09;;;7.78;100.00
7966;BME280;4028;43.272;26.932;2022-11-15T03:04:28;99865.72;;;7.85;100.00
7966;BME280;4028;43.272;26.932;2022-11-15T03:07:14;99866.75;;;7.82;100.00
7966;BME280;4028;43.272;26.932;2022-11-15T03:10:12;99866.88;;;7.81;100.00
7966;BME280;4028;43.272;26.932;2022-11-15T03:15:14;99871.19;;;7.82;100.00
7966;BME280;4028;43.272;26.932;2022-11-15T03:17:49;99856.78;;;7.75;100.00
7966;BME280;4028;43.272;26.932;2022-11-15T03:20:18;99863.59;;;7.90;100.00
7966;BME280;4028;43.272;26.932;2022-11-15T03:22:46;99854.31;;;7.85;100.00
7966;BME280;4028;43.272;26.932;2022-11-15T03:25:19;99867.63;;;7.83;100.00
7966;BME280;4028;43.272;26.932;2022-11-15T03:27:52;99857.91;;;7.84;100.00
7966;BME280;4028;43.272;26.932;2022-11-15T03:30:18;99851.69;;;7.85;100.00
7966;BME280;4028;43.272;26.932;2022-11-15T03:32:49;99847.16;;;7.87;100.00
7966;BME280;4028;43.272;26.932;2022-11-15T03:35:19;99851.56;;;7.99;100.00
7966;BME280;4028;43.272;26.932;2022-11-15T03:37:57;99845.00;;;8.04;100.00
7966;BME280;4028;43.272;26.932;2022-11-15T03:40:30;99848.34;;;8.06;100.00
7966;BME280;4028;43.272;26.932;2022-11-15T03:43:24;99843.19;;;8.05;100.00
7966;BME280;4028;43.272;26.932;2022-11-15T03:46:00;99831.50;;;8.09;100.00
7966;BME280;4028;43.272;26.932;2022-11-15T03:48:30;99830.28;;;8.13;100.00
7966;BME280;4028;43.272;26.932;2022-11-15T03:50:59;99832.84;;;8.15;100.00
7966;BME280;4028;43.272;26.932;2022-11-15T03:53:25;99827.16;;;8.08;100.00
7966;BME280;4028;43.272;26.932;2022-11-15T03:55:50;99824.00;;;8.03;100.00
7966;BME280;4028;43.272;26.932;2022-11-15T03:58:16;99827.09;;;7.97;100.00
7966;BME280;4028;43.272;26.932;2022-11-15T04:00:41;99820.78;;;7.99;100.00
7966;BME280;4028;43.272;26.932;2022-11-15T04:03:07;99810.66;;;7.93;100.00
7966;BME280;4028;43.272;26.932;2022-11-15T04:05:33;99817.91;;;8.02;100.00
7966;BME280;4028;43.272;26.932;2022-11-15T04:07:58;99815.19;;;7.91;100.00
7966;BME280;4028;43.272;26.932;2022-11-15T04:10:24;99814.03;;;7.95;100.00
7966;BME280;4028;43.272;26.932;2022-11-15T04:12:49;99813.41;;;7.92;100.00
7966;BME280;4028;43.272;26.932;2022-11-15T04:15:17;99805.03;;;7.98;100.00
7966;BME280;4028;43.272;26.932;2022-11-15T04:17:45;99802.91;;;8.03;100.00
7966;BME280;4028;43.272;26.932;2022-11-15T04:20:23;99805.50;;;8.16;100.00
7966;BME280;4028;43.272;26.932;2022-11-15T04:23:13;99803.94;;;8.13;100.00
7966;BME280;4028;43.272;26.932;2022-11-15T04:26:00;99807.59;;;7.99;100.00
7966;BME280;4028;43.272;26.932;2022-11-15T04:28:26;99809.16;;;8.02;100.00
7966;BME280;4028;43.272;26.932;2022-11-15T04:30:52;99812.53;;;8.04;100.00
7966;BME280;4028;43.272;26.932;2022-11-15T04:33:18;99817.91;;;8.02;100.00
7966;BME280;4028;43.272;26.932;2022-11-15T04:35:44;99809.03;;;8.03;100.00
7966;BME280;4028;43.272;26.932;2022-11-15T04:38:29;99801.31;;;7.89;100.00
7966;BME280;4028;43.272;26.932;2022-11-15T04:40:54;99807.81;;;7.96;100.00
7966;BME280;4028;43.272;26.932;2022-11-15T04:43:20;99804.31;;;7.96;100.00
7966;BME280;4028;43.272;26.932;2022-11-15T04:45:45;99809.72;;;7.94;100.00
7966;BME280;4028;43.272;26.932;2022-11-15T04:48:11;99805.50;;;7.92;100.00
7966;BME280;4028;43.272;26.932;2022-11-15T04:50:36;99802.53;;;7.96;100.00
7966;BME280;4028;43.272;26.932;2022-11-15T04:53:02;99797.56;;;8.04;100.00
7966;BME280;4028;43.272;26.932;2022-11-15T04:55:27;99804.13;;;7.99;100.00
7966;BME280;4028;43.272;26.932;2022-11-15T04:58:00;99795.75;;;8.05;100.00
7966;BME280;4028;43.272;26.932;2022-11-15T05:00:27;99793.34;;;8.02;100.00
7966;BME280;4028;43.272;26.932;2022-11-15T05:02:53;99802.25;;;8.12;100.00
7966;BME280;4028;43.272;26.932;2022-11-15T05:05:37;99805.84;;;8.11;100.00
7966;BME280;4028;43.272;26.932;2022-11-15T05:08:03;99800.78;;;8.08;100.00
7966;BME280;4028;43.272;26.932;2022-11-15T05:10:28;99803.75;;;8.03;100.00
7966;BME280;4028;43.272;26.932;2022-11-15T05:12:54;99796.97;;;8.12;100.00
7966;BME280;4028;43.272;26.932;2022-11-15T05:15:19;99798.00;;;8.22;100.00
7966;BME280;4028;43.272;26.932;2022-11-15T05:17:45;99802.72;;;8.30;100.00
7966;BME280;4028;43.272;26.932;2022-11-15T05:20:11;99805.94;;;8.33;100.00
7966;BME280;4028;43.272;26.932;2022-11-15T05:22:37;99805.94;;;8.33;100.00
7966;BME280;4028;43.272;26.932;2022-11-15T05:25:03;99794.91;;;8.28;100.00
7966;BME280;4028;43.272;26.932;2022-11-15T05:27:28;99798.94;;;8.21;100.00
7966;BME280;4028;43.272;26.932;2022-11-15T05:29:54;99792.72;;;8.22;100.00
7966;BME280;4028;43.272;26.932;2022-11-15T05:32:20;99804.06;;;8.36;100.00
7966;BME280;4028;43.272;26.932;2022-11-15T05:34:46;99799.06;;;8.44;100.00
7966;BME280;4028;43.272;26.932;2022-11-15T05:37:12;99796.16;;;8.36;100.00
7966;BME280;4028;43.272;26.932;2022-11-15T05:39:38;99800.28;;;8.27;100.00
7966;BME280;4028;43.272;26.932;2022-11-15T05:42:14;99795.22;;;8.24;100.00
7966;BME280;4028;43.272;26.932;2022-11-15T05:44:43;99797.78;;;8.25;100.00
7966;BME280;4028;43.272;26.932;2022-11-15T05:47:12;99793.84;;;8.31;100.00
7966;BME280;4028;43.272;26.932;2022-11-15T05:49:42;99792.56;;;8.37;100.00
7966;BME280;4028;43.272;26.932;2022-11-15T05:52:11;99793.50;;;8.36;100.00
7966;BME280;4028;43.272;26.932;2022-11-15T05:54:38;99800.56;;;8.35;100.00
7966;BME280;4028;43.272;26.932;2022-11-15T05:57:04;99800.88;;;8.43;100.00
7966;BME280;4028;43.272;26.932;2022-11-15T05:59:31;99795.03;;;8.51;100.00
7966;BME280;4028;43.272;26.932;2022-11-15T06:01:57;99794.44;;;8.58;100.00
7966;BME280;4028;43.272;26.932;2022-11-15T06:04:22;99799.88;;;8.68;100.00
7966;BME280;4028;43.272;26.932;2022-11-15T06:06:48;99794.59;;;8.68;100.00
7966;BME280;4028;43.272;26.932;2022-11-15T06:09:13;99806.00;;;8.80;100.00
7966;BME280;4028;43.272;26.932;2022-11-15T06:11:39;99797.50;;;8.76;100.00
7966;BME280;4028;43.272;26.932;2022-11-15T06:14:04;99795.19;;;8.61;100.00
7966;BME280;4028;43.272;26.932;2022-11-15T06:16:30;99802.16;;;8.73;100.00
7966;BME280;4028;43.272;26.932;2022-11-15T06:18:55;99791.38;;;8.76;100.00
7966;BME280;4028;43.272;26.932;2022-11-15T06:21:21;99803.84;;;8.85;100.00
7966;BME280;4028;43.272;26.932;2022-11-15T06:23:47;99806.63;;;8.83;100.00
7966;BME280;4028;43.272;26.932;2022-11-15T06:26:12;99806.81;;;8.69;100.00
7966;BME280;4028;43.272;26.932;2022-11-15T06:28:38;99793.13;;;8.64;100.00
7966;BME280;4028;43.272;26.932;2022-11-15T06:31:05;99806.22;;;8.66;100.00
7966;BME280;4028;43.272;26.932;2022-11-15T06:33:31;99808.06;;;8.76;100.00
7966;BME280;4028;43.272;26.932;2022-11-15T06:36:03;99815.22;;;8.74;100.00
7966;BME280;4028;43.272;26.932;2022-11-15T06:38:28;99815.63;;;8.46;100.00
7966;BME280;4028;43.272;26.932;2022-11-15T06:40:54;99811.34;;;8.56;100.00
7966;BME280;4028;43.272;26.932;2022-11-15T06:43:19;99806.56;;;8.61;100.00
7966;BME280;4028;43.272;26.932;2022-11-15T06:45:45;99807.66;;;8.70;100.00
7966;BME280;4028;43.272;26.932;2022-11-15T06:48:10;99815.97;;;8.76;100.00
7966;BME280;4028;43.272;26.932;2022-11-15T06:50:36;99812.25;;;8.79;100.00
7966;BME280;4028;43.272;26.932;2022-11-15T06:53:03;99815.22;;;8.74;100.00
7966;BME280;4028;43.272;26.932;2022-11-15T06:55:28;99811.19;;;8.81;100.00
7966;BME280;4028;43.272;26.932;2022-11-15T06:57:54;99816.34;;;8.94;100.00
7966;BME280;4028;43.272;26.932;2022-11-15T07:00:21;99813.56;;;8.73;100.00
7966;BME280;4028;43.272;26.932;2022-11-15T07:02:47;99819.09;;;8.70;100.00
7966;BME280;4028;43.272;26.932;2022-11-15T07:05:13;99817.38;;;8.69;100.00
7966;BME280;4028;43.272;26.932;2022-11-15T07:07:39;99818.84;;;8.73;100.00
7966;BME280;4028;43.272;26.932;2022-11-15T07:10:05;99809.84;;;8.76;100.00
7966;BME280;4028;43.272;26.932;2022-11-15T07:12:31;99815.22;;;8.74;100.00
7966;BME280;4028;43.272;26.932;2022-11-15T07:14:56;99809.94;;;8.74;100.00
7966;BME280;4028;43.272;26.932;2022-11-15T07:17:22;99813.31;;;8.65;100.00
7966;BME280;4028;43.272;26.932;2022-11-15T07:19:47;99811.16;;;8.70;100.00
7966;BME280;4028;43.272;26.932;2022-11-15T07:22:13;99809.38;;;8.71;100.00
7966;BME280;4028;43.272;26.932;2022-11-15T07:24:38;99815.34;;;8.73;100.00
7966;BME280;4028;43.272;26.932;2022-11-15T07:27:04;99811.75;;;8.74;100.00
7966;BME280;4028;43.272;26.932;2022-11-15T07:29:29;99812.66;;;8.85;100.00
7966;BME280;4028;43.272;26.932;2022-11-15T07:31:55;99808.91;;;8.88;100.00
7966;BME280;4028;43.272;26.932;2022-11-15T07:34:20;99806.13;;;8.78;100.00
7966;BME280;4028;43.272;26.932;2022-11-15T07:36:46;99803.63;;;8.88;100.00
7966;BME280;4028;43.272;26.932;2022-11-15T07:39:11;99802.44;;;8.81;100.00
7966;BME280;4028;43.272;26.932;2022-11-15T07:41:37;99807.59;;;8.82;100.00
7966;BME280;4028;43.272;26.932;2022-11-15T07:44:04;99801.59;;;8.80;100.00
7966;BME280;4028;43.272;26.932;2022-11-15T07:46:30;99798.84;;;8.82;100.00
7966;BME280;4028;43.272;26.932;2022-11-15T07:48:56;99801.22;;;8.85;100.00
7966;BME280;4028;43.272;26.932;2022-11-15T07:51:21;99795.34;;;8.81;100.00
7966;BME280;4028;43.272;26.932;2022-11-15T07:53:47;99804.84;;;8.95;100.00
7966;BME280;4028;43.272;26.932;2022-11-15T07:56:13;99795.03;;;8.97;100.00
7966;BME280;4028;43.272;26.932;2022-11-15T07:58:38;99798.63;;;8.96;100.00
7966;BME280;4028;43.272;26.932;2022-11-15T08:01:09;99799.94;;;9.02;100.00
7966;BME280;4028;43.272;26.932;2022-11-15T08:03:35;99792.53;;;9.07;100.00
7966;BME280;4028;43.272;26.932;2022-11-15T08:06:00;99801.75;;;9.13;100.00
7966;BME280;4028;43.272;26.932;2022-11-15T08:08:26;99799.59;;;9.06;100.00
7966;BME280;4028;43.272;26.932;2022-11-15T08:10:52;99784.59;;;9.07;100.00
7966;BME280;4028;43.272;26.932;2022-11-15T08:13:18;99782.09;;;9.17;100.00
7966;BME280;4028;43.272;26.932;2022-11-15T08:15:44;99788.44;;;9.14;100.00
7966;BME280;4028;43.272;26.932;2022-11-15T08:18:14;99782.94;;;9.06;100.00
7966;BME280;4028;43.272;26.932;2022-11-15T08:20:41;99785.78;;;9.14;100.00
7966;BME280;4028;43.272;26.932;2022-11-15T08:23:08;99782.19;;;9.26;100.00
7966;BME280;4028;43.272;26.932;2022-11-15T08:25:35;99783.28;;;9.35;100.00
7966;BME280;4028;43.272;26.932;2022-11-15T08:28:04;99774.50;;;9.46;100.00
7966;BME280;4028;43.272;26.932;2022-11-15T08:30:33;99777.38;;;9.54;100.00
7966;BME280;4028;43.272;26.932;2022-11-15T08:32:59;99775.31;;;9.69;100.00
7966;BME280;4028;43.272;26.932;2022-11-15T08:35:25;99773.53;;;9.69;100.00
7966;BME280;4028;43.272;26.932;2022-11-15T08:37:52;99760.03;;;9.72;100.00
7966;BME280;4028;43.272;26.932;2022-11-15T08:40:18;99760.16;;;9.82;100.00
7966;BME280;4028;43.272;26.932;2022-11-15T08:42:47;99759.19;;;9.94;100.00
7966;BME280;4028;43.272;26.932;2022-11-15T08:45:13;99759.97;;;10.06;100.00
7966;BME280;4028;43.272;26.932;2022-11-15T08:47:39;99759.88;;;9.96;100.00
7966;BME280;4028;43.272;26.932;2022-11-15T08:50:05;99752.34;;;9.80;100.00
7966;BME280;4028;43.272;26.932;2022-11-15T08:52:31;99747.41;;;9.87;100.00
7966;BME280;4028;43.272;26.932;2022-11-15T08:54:57;99729.53;;;9.79;100.00
7966;BME280;4028;43.272;26.932;2022-11-15T08:57:23;99740.31;;;9.87;100.00
7966;BME280;4028;43.272;26.932;2022-11-15T08:59:48;99731.06;;;9.93;100.00
7966;BME280;4028;43.272;26.932;2022-11-15T09:02:14;99729.34;;;10.03;100.00
7966;BME280;4028;43.272;26.932;2022-11-15T09:04:43;99730.56;;;9.99;100.00
7966;BME280;4028;43.272;26.932;2022-11-15T09:07:10;99717.03;;;10.13;100.00
7966;BME280;4028;43.272;26.932;2022-11-15T09:09:35;99714.09;;;10.28;100.00
7966;BME280;4028;43.272;26.932;2022-11-15T09:12:01;99714.56;;;10.33;100.00
7966;BME280;4028;43.272;26.932;2022-11-15T09:14:27;99709.59;;;10.39;100.00
7966;BME280;4028;43.272;26.932;2022-11-15T09:16:52;99706.31;;;10.47;100.00
7966;BME280;4028;43.272;26.932;2022-11-15T09:19:18;99720.19;;;10.60;100.00
7966;BME280;4028;43.272;26.932;2022-11-15T09:21:43;99705.75;;;10.74;100.00
7966;BME280;4028;43.272;26.932;2022-11-15T09:24:09;99703.94;;;10.75;100.00
7966;BME280;4028;43.272;26.932;2022-11-15T09:26:34;99704.47;;;10.68;100.00
7966;BME280;4028;43.272;26.932;2022-11-15T09:29:00;99696.47;;;10.59;100.00
7966;BME280;4028;43.272;26.932;2022-11-15T09:31:26;99692.75;;;10.61;100.00
7966;BME280;4028;43.272;26.932;2022-11-15T09:33:52;99693.78;;;10.70;100.00
7966;BME280;4028;43.272;26.932;2022-11-15T09:36:18;99681.00;;;10.54;100.00
7966;BME280;4028;43.272;26.932;2022-11-15T09:38:43;99688.63;;;10.48;100.00
7966;BME280;4028;43.272;26.932;2022-11-15T09:49:31;99692.47;;;10.85;100.00
7966;BME280;4028;43.272;26.932;2022-11-15T09:51:57;99681.72;;;10.87;100.00
7966;BME280;4028;43.272;26.932;2022-11-15T09:54:28;99684.69;;;10.93;100.00
7966;BME280;4028;43.272;26.932;2022-11-15T09:57:09;99680.13;;;10.75;100.00
7966;BME280;4028;43.272;26.932;2022-11-15T09:59:43;99672.59;;;10.70;100.00
7966;BME280;4028;43.272;26.932;2022-11-15T10:02:46;99672.94;;;10.56;100.00
7966;BME280;4028;43.272;26.932;2022-11-15T10:05:16;99672.50;;;10.51;100.00
7966;BME280;4028;43.272;26.932;2022-11-15T10:12:53;99664.47;;;10.62;100.00
7966;BME280;4028;43.272;26.932;2022-11-15T10:15:19;99666.13;;;10.63;100.00
7966;BME280;4028;43.272;26.932;2022-11-15T10:20:49;99653.88;;;10.62;100.00
7966;BME280;4028;43.272;26.932;2022-11-15T10:23:17;99639.28;;;10.67;100.00
7966;BME280;4028;43.272;26.932;2022-11-15T10:25:44;99644.00;;;10.64;100.00
7966;BME280;4028;43.272;26.932;2022-11-15T10:28:26;99633.59;;;10.72;100.00
7966;BME280;4028;43.272;26.932;2022-11-15T10:30:54;99637.38;;;10.49;100.00
7966;BME280;4028;43.272;26.932;2022-11-15T10:36:18;99619.28;;;10.54;100.00
7966;BME280;4028;43.272;26.932;2022-11-15T10:38:51;99615.47;;;10.67;100.00
7966;BME280;4028;43.272;26.932;2022-11-15T10:41:31;99612.13;;;10.65;100.00
7966;BME280;4028;43.272;26.932;2022-11-15T10:44:25;99610.03;;;10.69;100.00
7966;BME280;4028;43.272;26.932;2022-11-15T10:49:24;99601.97;;;10.71;100.00
7966;BME280;4028;43.272;26.932;2022-11-15T10:51:53;99595.53;;;10.63;100.00
7966;BME280;4028;43.272;26.932;2022-11-15T10:54:44;99591.91;;;10.64;100.00
7966;BME280;4028;43.272;26.932;2022-11-15T10:57:15;99582.63;;;10.70;100.00
7966;BME280;4028;43.272;26.932;2022-11-15T10:59:49;99579.28;;;10.78;100.00
7966;BME280;4028;43.272;26.932;2022-11-15T11:04:59;99566.66;;;10.91;100.00
7966;BME280;4028;43.272;26.932;2022-11-15T11:07:27;99572.09;;;10.99;100.00
7966;BME280;4028;43.272;26.932;2022-11-15T11:10:18;99566.00;;;11.28;100.00
7966;BME280;4028;43.272;26.932;2022-11-15T11:12:44;99556.53;;;11.54;100.00
7966;BME280;4028;43.272;26.932;2022-11-15T11:15:12;99558.06;;;11.86;100.00
7966;BME280;4028;43.272;26.932;2022-11-15T11:20:25;99548.16;;;11.78;100.00
7966;BME280;4028;43.272;26.932;2022-11-15T11:23:26;99539.94;;;11.62;100.00
7966;BME280;4028;43.272;26.932;2022-11-15T11:31:34;99530.59;;;11.48;100.00
7966;BME280;4028;43.272;26.932;2022-11-15T11:42:22;99521.22;;;11.05;100.00
7966;BME280;4028;43.272;26.932;2022-11-15T11:47:42;99516.19;;;10.83;100.00
7966;BME280;4028;43.272;26.932;2022-11-15T11:50:24;99504.75;;;10.82;100.00
7966;BME280;4028;43.272;26.932;2022-11-15T11:53:03;99509.88;;;10.74;100.00
7966;BME280;4028;43.272;26.932;2022-11-15T11:58:16;99504.59;;;10.74;100.00
7966;BME280;4028;43.272;26.932;2022-11-15T12:00:47;99501.22;;;10.62;100.00
7966;BME280;4028;43.272;26.932;2022-11-15T12:03:26;99494.97;;;10.63;100.00
7966;BME280;4028;43.272;26.932;2022-11-15T12:06:00;99489.53;;;10.75;100.00
7966;BME280;4028;43.272;26.932;2022-11-15T12:11:37;99491.69;;;10.90;100.00
7966;BME280;4028;43.272;26.932;2022-11-15T12:17:08;99482.06;;;11.09;100.00
7966;BME280;4028;43.272;26.932;2022-11-15T12:19:35;99477.19;;;11.14;100.00
7966;BME280;4028;43.272;26.932;2022-11-15T12:22:10;99466.91;;;11.11;100.00
7966;BME280;4028;43.272;26.932;2022-11-15T12:27:19;99461.28;;;10.94;100.00
7966;BME280;4028;43.272;26.932;2022-11-15T12:29:52;99467.31;;;10.97;100.00
7966;BME280;4028;43.272;26.932;2022-11-15T12:32:29;99453.34;;;10.94;100.00
7966;BME280;4028;43.272;26.932;2022-11-15T12:34:56;99455.59;;;10.99;100.00
7966;BME280;4028;43.272;26.932;2022-11-15T12:42:42;99439.16;;;10.96;100.00
7966;BME280;4028;43.272;26.932;2022-11-15T12:45:37;99432.03;;;10.86;100.00
7966;BME280;4028;43.272;26.932;2022-11-15T13:01:09;99425.47;;;11.00;100.00
7966;BME280;4028;43.272;26.932;2022-11-15T13:03:36;99434.69;;;11.06;100.00
7966;BME280;4028;43.272;26.932;2022-11-15T13:06:38;99428.28;;;10.99;100.00
7966;BME280;4028;43.272;26.932;2022-11-15T13:15:00;99422.97;;;10.99;100.00
7966;BME280;4028;43.272;26.932;2022-11-15T13:17:32;99419.50;;;10.98;100.00
7966;BME280;4028;43.272;26.932;2022-11-15T13:22:37;99404.84;;;10.94;100.00
7966;BME280;4028;43.272;26.932;2022-11-15T13:25:50;99404.59;;;10.97;100.00
7966;BME280;4028;43.272;26.932;2022-11-15T13:28:30;99406.41;;;10.97;100.00
7966;BME280;4028;43.272;26.932;2022-11-15T13:30:59;99400.97;;;10.98;100.00
7966;BME280;4028;43.272;26.932;2022-11-15T13:33:30;99401.38;;;10.93;100.00
7966;BME280;4028;43.272;26.932;2022-11-15T13:35:58;99395.09;;;10.85;100.00
7966;BME280;4028;43.272;26.932;2022-11-15T13:40:50;99388.56;;;10.79;100.00
7966;BME280;4028;43.272;26.932;2022-11-15T13:46:12;99383.00;;;10.82;100.00
7966;BME280;4028;43.272;26.932;2022-11-15T13:48:43;99349.00;;;10.68;100.00
7966;BME280;4028;43.272;26.932;2022-11-15T13:51:19;99377.97;;;10.79;100.00
7966;BME280;4028;43.272;26.932;2022-11-15T13:53:54;99381.03;;;10.84;100.00
7966;BME280;4028;43.272;26.932;2022-11-15T13:56:21;99377.53;;;10.74;100.00
7966;BME280;4028;43.272;26.932;2022-11-15T13:58:47;99374.78;;;10.66;100.00
7966;BME280;4028;43.272;26.932;2022-11-15T14:01:20;99375.88;;;10.73;100.00
7966;BME280;4028;43.272;26.932;2022-11-15T14:03:58;99369.59;;;10.64;100.00
7966;BME280;4028;43.272;26.932;2022-11-15T14:06:28;99363.19;;;10.57;100.00
7966;BME280;4028;43.272;26.932;2022-11-15T14:09:16;99366.66;;;10.48;100.00
7966;BME280;4028;43.272;26.932;2022-11-15T14:11:51;99360.81;;;10.54;100.00
7966;BME280;4028;43.272;26.932;2022-11-15T14:14:20;99364.84;;;10.49;100.00
7966;BME280;4028;43.272;26.932;2022-11-15T14:16:48;99365.16;;;10.55;100.00
7966;BME280;4028;43.272;26.932;2022-11-15T14:25:07;99360.69;;;10.36;100.00
7966;BME280;4028;43.272;26.932;2022-11-15T14:27:38;99356.50;;;10.34;100.00
7966;BME280;4028;43.272;26.932;2022-11-15T14:30:04;99349.69;;;10.31;100.00
7966;BME280;4028;43.272;26.932;2022-11-15T14:32:48;99349.09;;;10.28;100.00
7966;BME280;4028;43.272;26.932;2022-11-15T14:35:17;99347.72;;;10.24;100.00
7966;BME280;4028;43.272;26.932;2022-11-15T14:37:43;99338.75;;;10.15;100.00
7966;BME280;4028;43.272;26.932;2022-11-15T14:40:14;99337.63;;;10.08;100.00
7966;BME280;4028;43.272;26.932;2022-11-15T14:42:40;99331.50;;;10.07;100.00
7966;BME280;4028;43.272;26.932;2022-11-15T14:47:40;99325.53;;;10.05;100.00
7966;BME280;4028;43.272;26.932;2022-11-15T14:50:06;99324.56;;;10.16;100.00
7966;BME280;4028;43.272;26.932;2022-11-15T14:52:32;99316.63;;;10.06;100.00
7966;BME280;4028;43.272;26.932;2022-11-15T14:55:08;99321.75;;;10.08;100.00
7966;BME280;4028;43.272;26.932;2022-11-15T14:57:35;99323.44;;;9.99;100.00
7966;BME280;4028;43.272;26.932;2022-11-15T15:00:01;99316.16;;;9.92;100.00
7966;BME280;4028;43.272;26.932;2022-11-15T15:02:28;99331.47;;;9.88;100.00
7966;BME280;4028;43.272;26.932;2022-11-15T15:04:53;99308.59;;;9.77;100.00
7966;BME280;4028;43.272;26.932;2022-11-15T15:07:19;99311.38;;;9.76;100.00
7966;BME280;4028;43.272;26.932;2022-11-15T15:09:45;99321.81;;;9.77;100.00
7966;BME280;4028;43.272;26.932;2022-11-15T15:12:19;99309.44;;;9.68;100.00
7966;BME280;4028;43.272;26.932;2022-11-15T15:14:45;99318.88;;;9.71;100.00
7966;BME280;4028;43.272;26.932;2022-11-15T15:17:12;99313.59;;;9.71;100.00
7966;BME280;4028;43.272;26.932;2022-11-15T15:19:38;99316.09;;;9.62;100.00
7966;BME280;4028;43.272;26.932;2022-11-15T15:22:04;99308.81;;;9.55;100.00